Time;durP1;ratioP1;P1;durP2;ratioP2;P2;SDS_P1;SDS_P2;PMS_P1;PMS_P2;Temp;Humidity;BMP_temperature;BMP_pressure;BME280_temperature;BME280_humidity;BME280_pressure;Samples;Min_cycle;Max_cycle;Signal;HPM_P1;HPM_P2
2023/10/30 00:00:33;;;;;;;16.67;3.38;;;;;;;;;;7377316;19;20474;-89
2023/10/30 00:02:58;;;;;;;19.95;4.47;;;;;;;;;;7371402;19;20027;-88
2023/10/30 00:05:24;;;;;;;15.05;2.92;;;;;;;;;;7370798;19;20003;-89
2023/10/30 00:07:49;;;;;;;18.23;3.90;;;;;;;;;;7371198;19;20013;-89
2023/10/30 00:10:14;;;;;;;15.02;3.08;;;;;;;;;;7374657;19;20280;-89
2023/10/30 00:12:40;;;;;;;23.15;4.13;;;;;;;;;;7376314;19;20038;-89
2023/10/30 00:15:05;;;;;;;16.48;3.53;;;;;;;;;;7380774;19;20021;-90
2023/10/30 00:17:30;;;;;;;16.60;2.45;;;;;;;;;;7378830;19;20336;-88
2023/10/30 00:19:55;;;;;;;14.50;2.90;;;;;;;;;;7378492;19;20471;-88
2023/10/30 00:22:21;;;;;;;15.15;3.00;;;;;;;;;;7376047;19;20260;-92
2023/10/30 00:24:46;;;;;;;18.77;3.17;;;;;;;;;;7365599;19;20029;-93
2023/10/30 00:27:11;;;;;;;16.33;2.95;;;;;;;;;;7371342;19;20255;-91
2023/10/30 00:29:40;;;;;;;14.73;3.25;;;;;;;;;;7378796;19;20473;-88
2023/10/30 00:32:06;;;;;;;18.40;3.15;;;;;;;;;;7379927;19;20399;-89
2023/10/30 00:34:31;;;;;;;13.52;2.92;;;;;;;;;;7377822;19;20444;-89
2023/10/30 00:36:57;;;;;;;14.90;3.67;;;;;;;;;;7373568;19;20003;-89
2023/10/30 00:39:22;;;;;;;15.60;2.80;;;;;;;;;;7385578;19;20255;-91
2023/10/30 00:41:47;;;;;;;14.10;2.55;;;;;;;;;;7370298;19;20003;-88
2023/10/30 00:44:12;;;;;;;15.13;2.57;;;;;;;;;;7382658;19;20003;-88
2023/10/30 00:46:38;;;;;;;16.43;3.03;;;;;;;;;;7378980;19;20250;-90
2023/10/30 00:49:03;;;;;;;17.10;2.60;;;;;;;;;;7370539;19;20260;-92
2023/10/30 00:51:28;;;;;;;18.90;3.83;;;;;;;;;;7379837;19;20239;-92
2023/10/30 00:53:54;;;;;;;21.42;3.03;;;;;;;;;;7377149;19;20013;-88
2023/10/30 00:56:19;;;;;;;14.13;2.87;;;;;;;;;;7376151;19;20467;-89
2023/10/30 00:58:44;;;;;;;16.60;3.17;;;;;;;;;;7379261;19;20277;-89
2023/10/30 01:01:13;;;;;;;14.20;3.45;;;;;;;;;;7377987;19;20632;-88
2023/10/30 01:03:38;;;;;;;14.40;3.30;;;;;;;;;;7372731;19;20087;-91
2023/10/30 01:06:04;;;;;;;15.07;3.28;;;;;;;;;;7381457;19;20015;-91
2023/10/30 01:08:29;;;;;;;14.75;3.22;;;;;;;;;;7377097;19;20375;-90
2023/10/30 01:10:56;;;;;;;16.37;3.13;;;;;;;;;;7366651;19;20094;-87
2023/10/30 01:13:21;;;;;;;18.50;3.92;;;;;;;;;;7386597;19;20236;-89
2023/10/30 01:15:55;;;;;;;14.30;2.90;;;;;;;;;;7386632;19;20002;-89
2023/10/30 01:18:21;;;;;;;22.15;3.58;;;;;;;;;;7389066;19;20150;-91
2023/10/30 01:20:49;;;;;;;18.90;3.65;;;;;;;;;;7384530;19;20003;-88
2023/10/30 01:23:15;;;;;;;16.05;3.47;;;;;;;;;;7379572;19;19995;-92
2023/10/30 01:25:40;;;;;;;15.38;3.88;;;;;;;;;;7333589;19;20037;-91
2023/10/30 01:28:05;;;;;;;12.05;3.20;;;;;;;;;;7372570;19;20011;-90
2023/10/30 01:30:30;;;;;;;19.58;4.07;;;;;;;;;;7379135;19;20002;-89
2023/10/30 01:32:56;;;;;;;20.95;4.22;;;;;;;;;;7378645;19;19998;-89
2023/10/30 01:35:23;;;;;;;12.45;3.30;;;;;;;;;;7379088;19;19995;-89
2023/10/30 01:37:48;;;;;;;20.13;3.65;;;;;;;;;;7378161;19;20054;-92
2023/10/30 01:40:14;;;;;;;16.37;4.23;;;;;;;;;;7361185;19;20484;-94
2023/10/30 01:42:39;;;;;;;15.52;3.83;;;;;;;;;;7376089;19;20264;-91
2023/10/30 01:45:07;;;;;;;17.17;3.60;;;;;;;;;;7378224;19;20038;-89
2023/10/30 01:47:32;;;;;;;19.13;4.15;;;;;;;;;;7377915;19;19998;-91
2023/10/30 01:49:58;;;;;;;20.07;4.60;;;;;;;;;;7380345;19;20005;-90
2023/10/30 01:52:24;;;;;;;15.23;3.28;;;;;;;;;;7378760;19;20262;-91
2023/10/30 01:54:50;;;;;;;15.77;3.47;;;;;;;;;;7371154;19;19991;-89
2023/10/30 01:57:17;;;;;;;16.42;3.60;;;;;;;;;;7381973;19;20476;-88
2023/10/30 01:59:42;;;;;;;16.65;3.58;;;;;;;;;;7377176;19;20009;-91
2023/10/30 02:02:08;;;;;;;17.92;3.33;;;;;;;;;;7378721;19;19994;-89
2023/10/30 02:04:33;;;;;;;22.30;3.72;;;;;;;;;;7328945;19;20329;-91
2023/10/30 02:06:59;;;;;;;14.57;3.53;;;;;;;;;;7370219;19;20014;-89
2023/10/30 02:09:24;;;;;;;14.68;3.50;;;;;;;;;;7373628;19;19990;-87
2023/10/30 02:11:49;;;;;;;24.20;4.07;;;;;;;;;;7378222;19;20011;-89
2023/10/30 02:14:15;;;;;;;19.07;4.37;;;;;;;;;;7383832;19;19999;-89
2023/10/30 02:16:41;;;;;;;14.48;3.95;;;;;;;;;;7399499;19;20264;-92
2023/10/30 02:19:09;;;;;;;16.02;3.75;;;;;;;;;;7380388;19;20014;-90
2023/10/30 02:21:35;;;;;;;13.77;4.05;;;;;;;;;;7388399;19;20010;-90
2023/10/30 02:24:06;;;;;;;18.70;4.25;;;;;;;;;;7375791;19;20007;-90
2023/10/30 02:26:33;;;;;;;14.20;3.72;;;;;;;;;;7309018;19;20006;-92
2023/10/30 02:29:02;;;;;;;19.95;4.30;;;;;;;;;;7263610;19;20269;-91
2023/10/30 02:31:30;;;;;;;16.67;4.00;;;;;;;;;;7294032;19;20010;-90
2023/10/30 02:33:55;;;;;;;15.95;3.90;;;;;;;;;;7310245;19;20450;-92
2023/10/30 02:36:20;;;;;;;14.50;3.83;;;;;;;;;;7312261;19;20574;-93
2023/10/30 02:38:46;;;;;;;18.55;3.90;;;;;;;;;;7295880;19;19998;-93
2023/10/30 02:41:12;;;;;;;16.17;3.83;;;;;;;;;;7307644;19;20127;-93
2023/10/30 02:43:37;;;;;;;11.57;3.13;;;;;;;;;;7296087;19;20002;-94
2023/10/30 02:46:06;;;;;;;13.90;3.30;;;;;;;;;;7311811;19;20089;-93
2023/10/30 02:48:31;;;;;;;15.73;3.70;;;;;;;;;;7311235;19;20034;-91
2023/10/30 02:50:57;;;;;;;14.40;3.05;;;;;;;;;;7292403;19;20006;-94
2023/10/30 02:53:22;;;;;;;14.50;3.50;;;;;;;;;;7302475;19;20571;-92
2023/10/30 02:55:48;;;;;;;22.70;4.15;;;;;;;;;;7306522;19;19994;-91
2023/10/30 02:58:13;;;;;;;15.52;3.83;;;;;;;;;;7292067;19;20370;-88
2023/10/30 03:00:38;;;;;;;18.95;3.90;;;;;;;;;;7309054;19;20002;-95
2023/10/30 03:03:04;;;;;;;19.25;3.58;;;;;;;;;;7297807;19;20017;-93
2023/10/30 03:05:29;;;;;;;11.18;3.22;;;;;;;;;;7309822;19;20291;-90
2023/10/30 03:07:54;;;;;;;17.75;3.40;;;;;;;;;;7312839;19;20074;-90
2023/10/30 03:10:22;;;;;;;13.07;3.25;;;;;;;;;;7314538;19;20281;-95
2023/10/30 03:12:47;;;;;;;15.93;3.50;;;;;;;;;;7299783;19;20551;-94
2023/10/30 03:15:13;;;;;;;16.30;3.63;;;;;;;;;;7311386;19;20540;-92
2023/10/30 03:17:38;;;;;;;20.08;3.55;;;;;;;;;;7314091;19;20002;-94
2023/10/30 03:20:04;;;;;;;15.55;3.40;;;;;;;;;;7306366;19;20207;-92
2023/10/30 03:22:29;;;;;;;18.23;3.28;;;;;;;;;;7306139;19;20372;-93
2023/10/30 03:24:54;;;;;;;14.02;3.90;;;;;;;;;;7336037;19;19998;-90
2023/10/30 03:27:19;;;;;;;13.55;3.50;;;;;;;;;;7379106;19;19998;-85
2023/10/30 03:29:44;;;;;;;17.53;3.83;;;;;;;;;;7383123;19;19998;-86
2023/10/30 03:32:10;;;;;;;19.10;3.97;;;;;;;;;;7379885;19;20319;-89
2023/10/30 03:34:35;;;;;;;12.90;3.65;;;;;;;;;;7378744;19;19995;-88
2023/10/30 03:37:01;;;;;;;18.08;4.03;;;;;;;;;;7380875;19;20003;-93
2023/10/30 03:39:27;;;;;;;15.02;3.40;;;;;;;;;;7379548;19;20040;-88
2023/10/30 03:41:52;;;;;;;18.43;4.10;;;;;;;;;;7396822;19;19991;-88
2023/10/30 03:44:19;;;;;;;14.05;3.95;;;;;;;;;;7382496;19;20915;-88
2023/10/30 03:46:44;;;;;;;13.10;4.03;;;;;;;;;;7388450;19;20354;-85
2023/10/30 03:49:10;;;;;;;14.20;4.40;;;;;;;;;;7378280;19;20007;-87
2023/10/30 03:51:35;;;;;;;18.55;4.45;;;;;;;;;;7382601;19;20471;-91
2023/10/30 03:54:00;;;;;;;20.40;4.60;;;;;;;;;;7376175;19;20279;-92
2023/10/30 03:56:29;;;;;;;15.45;4.80;;;;;;;;;;7361998;19;20711;-90
2023/10/30 03:58:54;;;;;;;16.55;4.53;;;;;;;;;;7379849;19;20017;-88
2023/10/30 04:01:19;;;;;;;22.23;6.07;;;;;;;;;;7379335;19;20345;-89
2023/10/30 04:03:45;;;;;;;18.67;4.93;;;;;;;;;;7378591;19;20027;-87
2023/10/30 04:06:10;;;;;;;15.43;4.80;;;;;;;;;;7382461;19;20259;-88
2023/10/30 04:08:35;;;;;;;12.75;4.30;;;;;;;;;;7384264;19;20006;-92
2023/10/30 04:11:07;;;;;;;18.67;4.80;;;;;;;;;;7381157;19;19998;-89
2023/10/30 04:13:32;;;;;;;15.55;5.18;;;;;;;;;;7373441;19;20002;-89
2023/10/30 04:15:57;;;;;;;21.00;4.50;;;;;;;;;;7382367;19;20082;-89
2023/10/30 04:18:22;;;;;;;14.03;4.13;;;;;;;;;;7373247;19;20804;-90
2023/10/30 04:20:47;;;;;;;15.83;4.27;;;;;;;;;;7381931;19;20267;-88
2023/10/30 04:23:12;;;;;;;20.20;4.90;;;;;;;;;;7375876;19;20975;-88
2023/10/30 04:25:38;;;;;;;14.07;4.75;;;;;;;;;;7376350;19;20251;-88
2023/10/30 04:28:03;;;;;;;14.53;3.90;;;;;;;;;;7377130;19;20010;-89
2023/10/30 04:30:28;;;;;;;20.92;4.82;;;;;;;;;;7385488;19;20799;-89
2023/10/30 04:32:54;;;;;;;23.65;4.50;;;;;;;;;;7382569;19;20005;-92
2023/10/30 04:35:19;;;;;;;12.30;4.47;;;;;;;;;;7377552;19;20433;-89
2023/10/30 04:37:44;;;;;;;19.63;5.60;;;;;;;;;;7373290;19;20015;-92
2023/10/30 04:40:09;;;;;;;17.80;4.60;;;;;;;;;;7377114;19;20263;-88
2023/10/30 04:42:34;;;;;;;16.13;5.25;;;;;;;;;;7379914;19;20268;-89
2023/10/30 04:44:59;;;;;;;13.57;4.40;;;;;;;;;;7375496;19;20010;-90
2023/10/30 04:47:25;;;;;;;14.33;4.90;;;;;;;;;;7384193;19;20003;-92
2023/10/30 04:49:50;;;;;;;17.40;4.83;;;;;;;;;;7383240;19;20576;-89
2023/10/30 04:52:15;;;;;;;13.13;4.65;;;;;;;;;;7383869;19;20239;-89
2023/10/30 04:54:40;;;;;;;17.30;5.03;;;;;;;;;;7385187;19;19998;-87
2023/10/30 04:57:05;;;;;;;16.47;5.13;;;;;;;;;;7383215;19;20251;-92
2023/10/30 04:59:31;;;;;;;18.05;5.15;;;;;;;;;;7386772;19;20276;-89
2023/10/30 05:01:57;;;;;;;15.65;5.18;;;;;;;;;;7382557;19;20012;-92
2023/10/30 05:04:22;;;;;;;20.48;5.78;;;;;;;;;;7389635;19;20038;-89
2023/10/30 05:06:48;;;;;;;16.97;5.67;;;;;;;;;;7400112;19;19987;-89
2023/10/30 05:09:13;;;;;;;18.42;5.07;;;;;;;;;;7384508;19;20255;-89
2023/10/30 05:11:39;;;;;;;15.30;5.60;;;;;;;;;;7378717;19;20001;-91
2023/10/30 05:14:04;;;;;;;16.05;5.32;;;;;;;;;;7385736;19;19999;-88
2023/10/30 05:16:29;;;;;;;11.50;4.95;;;;;;;;;;7393984;19;20011;-90
2023/10/30 05:18:55;;;;;;;14.63;5.60;;;;;;;;;;7381471;19;20006;-92
2023/10/30 05:21:20;;;;;;;14.77;4.93;;;;;;;;;;7376078;19;20260;-89
2023/10/30 05:23:45;;;;;;;16.48;4.97;;;;;;;;;;7386349;19;20360;-87
2023/10/30 05:26:11;;;;;;;16.20;6.07;;;;;;;;;;7380552;19;20023;-88
2023/10/30 05:28:36;;;;;;;12.15;5.28;;;;;;;;;;7381780;19;20002;-88
2023/10/30 05:31:04;;;;;;;9.33;4.50;;;;;;;;;;7373203;19;20372;-89
2023/10/30 05:33:29;;;;;;;15.02;5.40;;;;;;;;;;7375338;19;20775;-90
2023/10/30 05:35:55;;;;;;;13.77;5.27;;;;;;;;;;7380146;19;20029;-89
2023/10/30 05:38:20;;;;;;;17.00;5.55;;;;;;;;;;7394801;19;20248;-88
2023/10/30 05:40:46;;;;;;;13.45;5.05;;;;;;;;;;7385442;19;20312;-92
2023/10/30 05:43:11;;;;;;;10.38;5.78;;;;;;;;;;7378008;19;20018;-88
2023/10/30 05:45:37;;;;;;;15.05;6.15;;;;;;;;;;7376791;19;20017;-90
2023/10/30 05:48:05;;;;;;;13.83;5.00;;;;;;;;;;7377249;19;20003;-88
2023/10/30 05:50:30;;;;;;;10.48;4.78;;;;;;;;;;7378513;19;20239;-89
2023/10/30 05:52:55;;;;;;;11.90;5.30;;;;;;;;;;7381400;19;20014;-88
2023/10/30 05:55:20;;;;;;;9.25;4.82;;;;;;;;;;7370315;19;20022;-89
2023/10/30 05:57:47;;;;;;;13.10;5.47;;;;;;;;;;7379804;19;19994;-87
2023/10/30 06:00:13;;;;;;;13.30;4.60;;;;;;;;;;7379515;19;20014;-93
2023/10/30 06:02:39;;;;;;;12.60;5.10;;;;;;;;;;7372862;19;20006;-89
2023/10/30 06:05:06;;;;;;;8.82;4.22;;;;;;;;;;7380988;19;20020;-89
2023/10/30 06:07:31;;;;;;;9.48;4.60;;;;;;;;;;7381228;19;20066;-88
2023/10/30 06:09:57;;;;;;;10.20;4.68;;;;;;;;;;7379334;19;19990;-87
2023/10/30 06:12:22;;;;;;;11.38;4.60;;;;;;;;;;7381215;19;20026;-89
2023/10/30 06:14:47;;;;;;;8.63;4.07;;;;;;;;;;7384277;19;20013;-88
2023/10/30 06:17:12;;;;;;;9.35;4.15;;;;;;;;;;7379718;19;20026;-87
2023/10/30 06:19:38;;;;;;;12.27;4.27;;;;;;;;;;7378190;19;20031;-90
2023/10/30 06:22:03;;;;;;;8.60;3.47;;;;;;;;;;7374312;19;20803;-90
2023/10/30 06:24:31;;;;;;;12.35;4.43;;;;;;;;;;7376146;19;20256;-88
2023/10/30 06:26:56;;;;;;;7.78;3.53;;;;;;;;;;7376928;19;19995;-86
2023/10/30 06:29:21;;;;;;;11.65;3.40;;;;;;;;;;7380792;19;20594;-88
2023/10/30 06:31:46;;;;;;;10.27;3.45;;;;;;;;;;7390917;19;20018;-90
2023/10/30 06:34:14;;;;;;;9.20;4.53;;;;;;;;;;7368536;19;20002;-93
2023/10/30 06:36:40;;;;;;;9.02;3.05;;;;;;;;;;7308186;19;20262;-92
2023/10/30 06:39:05;;;;;;;9.80;3.07;;;;;;;;;;7359368;19;19998;-89
2023/10/30 06:41:30;;;;;;;8.43;2.83;;;;;;;;;;7382456;19;20228;-88
2023/10/30 06:43:56;;;;;;;8.98;2.70;;;;;;;;;;7345585;19;20260;-89
2023/10/30 06:46:21;;;;;;;7.65;2.40;;;;;;;;;;7366283;19;19994;-92
2023/10/30 06:48:55;;;;;;;7.63;2.38;;;;;;;;;;7354945;19;20002;-93
2023/10/30 06:51:21;;;;;;;8.80;2.42;;;;;;;;;;7345049;19;20994;-89
2023/10/30 06:53:46;;;;;;;7.63;2.40;;;;;;;;;;7379921;19;20010;-90
2023/10/30 06:56:11;;;;;;;8.75;2.55;;;;;;;;;;7377807;19;20355;-91
2023/10/30 06:58:39;;;;;;;9.03;2.30;;;;;;;;;;7381236;19;20006;-90
2023/10/30 07:01:04;;;;;;;10.13;3.10;;;;;;;;;;7378667;19;20271;-91
2023/10/30 07:03:34;;;;;;;8.18;2.05;;;;;;;;;;7380539;19;20404;-91
2023/10/30 07:06:00;;;;;;;9.60;2.42;;;;;;;;;;7380380;19;20364;-89
2023/10/30 07:08:25;;;;;;;6.60;1.83;;;;;;;;;;7380934;19;20010;-92
2023/10/30 07:10:51;;;;;;;6.88;2.00;;;;;;;;;;7376752;19;19998;-88
2023/10/30 07:13:16;;;;;;;8.50;2.28;;;;;;;;;;7372559;19;20003;-85
2023/10/30 07:15:41;;;;;;;8.13;2.05;;;;;;;;;;7360435;19;20009;-87
2023/10/30 07:18:07;;;;;;;9.07;2.10;;;;;;;;;;7373615;19;20016;-86
2023/10/30 07:20:36;;;;;;;8.40;1.65;;;;;;;;;;7336749;19;20456;-91
2023/10/30 07:23:02;;;;;;;9.23;1.92;;;;;;;;;;7364310;19;19999;-91
2023/10/30 07:25:30;;;;;;;6.80;1.77;;;;;;;;;;7367558;19;20093;-92
2023/10/30 07:27:55;;;;;;;7.28;1.75;;;;;;;;;;7382115;19;19999;-89
2023/10/30 07:30:23;;;;;;;6.83;1.67;;;;;;;;;;7351667;19;20036;-87
2023/10/30 07:32:48;;;;;;;4.35;1.38;;;;;;;;;;7374490;19;20255;-91
2023/10/30 07:35:13;;;;;;;8.95;1.40;;;;;;;;;;7328321;19;20058;-88
2023/10/30 07:37:38;;;;;;;7.18;1.80;;;;;;;;;;7366151;19;20006;-88
2023/10/30 07:40:05;;;;;;;5.73;1.47;;;;;;;;;;7356504;19;20019;-88
2023/10/30 07:42:30;;;;;;;5.15;1.50;;;;;;;;;;7374748;19;20266;-91
2023/10/30 07:44:55;;;;;;;4.30;1.20;;;;;;;;;;7386139;19;20070;-92
2023/10/30 07:47:20;;;;;;;6.68;1.48;;;;;;;;;;7386790;19;20243;-88
2023/10/30 07:49:46;;;;;;;8.30;1.63;;;;;;;;;;7375793;19;20006;-90
2023/10/30 07:52:11;;;;;;;5.57;1.52;;;;;;;;;;7360168;19;20337;-90
2023/10/30 07:54:38;;;;;;;4.73;1.33;;;;;;;;;;7349527;19;20372;-88
2023/10/30 07:57:04;;;;;;;5.95;1.88;;;;;;;;;;7392845;19;20288;-91
2023/10/30 07:59:31;;;;;;;5.85;1.42;;;;;;;;;;7378919;19;20070;-89
2023/10/30 08:01:56;;;;;;;5.38;1.27;;;;;;;;;;7391796;19;20005;-90
2023/10/30 08:04:22;;;;;;;7.88;1.70;;;;;;;;;;7365264;19;19998;-92
2023/10/30 08:06:48;;;;;;;5.38;1.10;;;;;;;;;;7368568;19;19999;-91
2023/10/30 08:09:15;;;;;;;4.95;1.42;;;;;;;;;;7397129;19;20015;-91
2023/10/30 08:11:41;;;;;;;3.75;1.10;;;;;;;;;;7344512;19;20018;-93
2023/10/30 08:14:07;;;;;;;6.40;1.25;;;;;;;;;;7389794;19;19998;-93
2023/10/30 08:16:34;;;;;;;5.25;1.30;;;;;;;;;;7384193;19;20812;-87
2023/10/30 08:18:59;;;;;;;5.28;1.20;;;;;;;;;;7370926;19;20558;-89
2023/10/30 08:21:25;;;;;;;6.77;1.47;;;;;;;;;;7387991;19;19998;-88
2023/10/30 08:23:50;;;;;;;6.97;1.30;;;;;;;;;;7345057;19;20270;-87
2023/10/30 08:26:15;;;;;;;6.63;1.57;;;;;;;;;;7381506;19;20324;-86
2023/10/30 08:28:40;;;;;;;4.17;1.03;;;;;;;;;;7388334;19;20310;-91
2023/10/30 08:31:06;;;;;;;4.70;1.10;;;;;;;;;;7387906;19;20235;-88
2023/10/30 08:33:54;;;;;;;4.95;1.10;;;;;;;;;;7379730;19;19998;-90
2023/10/30 08:36:21;;;;;;;5.25;1.40;;;;;;;;;;7356131;19;20043;-89
2023/10/30 08:38:46;;;;;;;6.43;1.55;;;;;;;;;;7385068;19;20047;-90
2023/10/30 08:41:15;;;;;;;3.33;1.30;;;;;;;;;;7381477;19;20006;-90
2023/10/30 08:43:40;;;;;;;5.40;1.35;;;;;;;;;;7364601;19;20259;-91
2023/10/30 08:46:05;;;;;;;5.25;1.00;;;;;;;;;;7332029;19;20023;-86
2023/10/30 08:48:31;;;;;;;4.30;1.10;;;;;;;;;;7379999;19;20065;-88
2023/10/30 08:50:56;;;;;;;5.17;1.13;;;;;;;;;;7381223;19;20252;-89
2023/10/30 08:53:21;;;;;;;3.30;1.03;;;;;;;;;;7297547;19;20836;-91
2023/10/30 08:55:46;;;;;;;4.00;1.00;;;;;;;;;;7342298;19;20577;-90
2023/10/30 08:58:11;;;;;;;4.80;1.47;;;;;;;;;;7350992;19;20267;-87
2023/10/30 09:00:37;;;;;;;4.38;1.30;;;;;;;;;;7388926;19;20244;-90
2023/10/30 09:03:02;;;;;;;3.75;1.20;;;;;;;;;;7384764;19;20439;-89
2023/10/30 09:05:27;;;;;;;5.03;1.73;;;;;;;;;;7385993;19;20467;-89
2023/10/30 09:07:58;;;;;;;4.53;1.60;;;;;;;;;;7383167;19;20118;-91
2023/10/30 09:10:28;;;;;;;6.10;1.80;;;;;;;;;;7339302;19;19999;-87
2023/10/30 09:12:55;;;;;;;3.83;1.60;;;;;;;;;;7390301;19;19998;-89
2023/10/30 09:15:20;;;;;;;4.57;1.70;;;;;;;;;;7391547;19;20586;-89
2023/10/30 09:17:47;;;;;;;3.80;1.58;;;;;;;;;;7397049;19;19994;-88
2023/10/30 09:20:14;;;;;;;5.85;1.95;;;;;;;;;;7385410;19;19991;-89
2023/10/30 09:22:39;;;;;;;4.78;1.80;;;;;;;;;;7338276;19;20008;-91
2023/10/30 09:25:04;;;;;;;5.40;1.77;;;;;;;;;;7367251;19;19990;-88
2023/10/30 09:27:30;;;;;;;6.82;2.13;;;;;;;;;;7387565;19;20267;-89
2023/10/30 09:29:55;;;;;;;6.93;2.00;;;;;;;;;;7330327;19;20472;-89
2023/10/30 09:32:25;;;;;;;4.55;1.67;;;;;;;;;;7366321;19;20333;-91
2023/10/30 09:34:51;;;;;;;3.95;1.70;;;;;;;;;;7361285;19;20965;-90
2023/10/30 09:37:16;;;;;;;4.88;1.70;;;;;;;;;;7381860;19;20049;-89
2023/10/30 09:39:41;;;;;;;5.78;1.85;;;;;;;;;;7379942;19;19999;-88
2023/10/30 09:42:07;;;;;;;5.35;1.80;;;;;;;;;;7369029;19;20483;-89
2023/10/30 09:44:33;;;;;;;3.85;1.58;;;;;;;;;;7342436;19;20629;-89
2023/10/30 09:46:59;;;;;;;4.05;1.60;;;;;;;;;;7385776;19;20635;-90
2023/10/30 09:49:24;;;;;;;4.40;1.58;;;;;;;;;;7378142;19;19998;-90
2023/10/30 09:51:50;;;;;;;4.75;1.50;;;;;;;;;;7384037;19;20832;-87
2023/10/30 09:54:17;;;;;;;3.47;1.33;;;;;;;;;;7380427;19;20016;-90
2023/10/30 09:56:44;;;;;;;4.40;1.30;;;;;;;;;;7386640;19;20003;-88
2023/10/30 09:59:10;;;;;;;4.50;1.23;;;;;;;;;;7382436;19;20007;-92
2023/10/30 10:01:35;;;;;;;4.25;1.40;;;;;;;;;;7381062;19;20131;-89
2023/10/30 10:04:00;;;;;;;4.00;1.38;;;;;;;;;;7379945;19;20111;-93
2023/10/30 10:06:26;;;;;;;3.85;1.40;;;;;;;;;;7383269;19;20226;-89
2023/10/30 10:08:51;;;;;;;3.10;1.37;;;;;;;;;;7367928;19;20582;-90
2023/10/30 10:11:20;;;;;;;5.10;1.30;;;;;;;;;;7317181;19;20240;-90
2023/10/30 10:13:48;;;;;;;3.75;1.40;;;;;;;;;;7380263;19;20023;-88
2023/10/30 10:16:14;;;;;;;3.63;1.33;;;;;;;;;;7390903;19;20360;-88
2023/10/30 10:18:40;;;;;;;5.15;1.70;;;;;;;;;;7373264;19;20199;-92
2023/10/30 10:21:08;;;;;;;4.40;1.80;;;;;;;;;;7332899;19;20051;-89
2023/10/30 10:23:34;;;;;;;3.25;1.40;;;;;;;;;;7382644;19;20005;-92
2023/10/30 10:25:59;;;;;;;3.60;1.40;;;;;;;;;;7318618;19;20003;-91
2023/10/30 10:28:25;;;;;;;2.50;1.30;;;;;;;;;;7374477;19;20326;-92
2023/10/30 10:30:52;;;;;;;3.28;1.27;;;;;;;;;;7396124;19;20058;-90
2023/10/30 10:33:18;;;;;;;4.18;1.08;;;;;;;;;;7340788;19;20033;-88
2023/10/30 10:35:43;;;;;;;2.42;1.05;;;;;;;;;;7383025;19;20515;-89
2023/10/30 10:38:09;;;;;;;4.18;1.00;;;;;;;;;;7334892;19;20006;-89
2023/10/30 10:40:35;;;;;;;2.65;1.00;;;;;;;;;;7382807;19;20030;-89
2023/10/30 10:43:02;;;;;;;4.70;1.23;;;;;;;;;;7380376;19;20047;-91
2023/10/30 10:45:28;;;;;;;4.90;1.15;;;;;;;;;;7345137;19;20399;-91
2023/10/30 10:47:53;;;;;;;5.70;1.30;;;;;;;;;;7393252;19;19997;-86
2023/10/30 10:50:20;;;;;;;2.15;0.90;;;;;;;;;;7381139;19;20061;-91
2023/10/30 10:52:46;;;;;;;2.33;0.90;;;;;;;;;;7382153;19;20062;-85
2023/10/30 10:55:13;;;;;;;4.65;0.98;;;;;;;;;;7378408;19;20002;-91
2023/10/30 10:57:47;;;;;;;3.35;0.63;;;;;;;;;;7381385;19;20023;-88
2023/10/30 11:00:13;;;;;;;1.98;0.70;;;;;;;;;;7385869;19;19995;-91
2023/10/30 11:02:39;;;;;;;2.72;0.85;;;;;;;;;;7307928;19;20010;-91
2023/10/30 11:05:05;;;;;;;1.88;0.80;;;;;;;;;;7376673;19;20105;-90
2023/10/30 11:07:35;;;;;;;4.43;1.80;;;;;;;;;;7370842;19;20019;-92
2023/10/30 11:10:03;;;;;;;4.15;1.40;;;;;;;;;;7383208;19;20006;-87
2023/10/30 11:12:45;;;;;;;2.53;1.02;;;;;;;;;;7378258;19;20017;-90
2023/10/30 11:15:20;;;;;;;3.92;1.63;;;;;;;;;;7334585;19;19999;-91
2023/10/30 11:18:06;;;;;;;2.45;0.95;;;;;;;;;;7377436;19;20022;-88
2023/10/30 11:20:32;;;;;;;3.90;1.40;;;;;;;;;;7360487;19;20475;-88
2023/10/30 11:22:58;;;;;;;3.80;1.33;;;;;;;;;;7352602;19;20325;-90
2023/10/30 11:25:35;;;;;;;4.87;1.13;;;;;;;;;;7381849;19;20019;-88
2023/10/30 11:28:02;;;;;;;2.13;0.90;;;;;;;;;;7317761;19;20275;-91
2023/10/30 11:30:31;;;;;;;2.20;0.93;;;;;;;;;;7372973;19;20921;-90
2023/10/30 11:32:57;;;;;;;5.20;1.00;;;;;;;;;;7384883;19;20001;-90
2023/10/30 11:35:23;;;;;;;3.13;0.95;;;;;;;;;;7377750;19;20534;-90
2023/10/30 11:37:54;;;;;;;2.67;1.15;;;;;;;;;;7351205;19;20594;-93
2023/10/30 11:40:19;;;;;;;2.97;0.93;;;;;;;;;;7347206;19;20002;-91
2023/10/30 11:42:46;;;;;;;2.72;0.98;;;;;;;;;;7384100;19;20297;-90
2023/10/30 11:45:17;;;;;;;3.17;1.10;;;;;;;;;;7383764;19;19994;-91
2023/10/30 11:47:46;;;;;;;3.33;1.25;;;;;;;;;;7389040;19;19998;-90
2023/10/30 11:50:11;;;;;;;2.75;1.10;;;;;;;;;;7384172;19;20443;-89
2023/10/30 11:52:40;;;;;;;3.35;1.48;;;;;;;;;;7331662;19;19990;-91
2023/10/30 11:55:07;;;;;;;3.35;1.20;;;;;;;;;;7366456;19;20001;-90
2023/10/30 11:57:36;;;;;;;4.18;0.93;;;;;;;;;;7354694;19;20099;-90
2023/10/30 12:00:02;;;;;;;3.63;1.27;;;;;;;;;;7356756;19;20031;-93
2023/10/30 12:02:28;;;;;;;4.55;1.00;;;;;;;;;;7364157;19;20023;-89
2023/10/30 12:04:53;;;;;;;4.30;1.10;;;;;;;;;;7380626;19;20014;-91
2023/10/30 12:07:18;;;;;;;2.97;1.00;;;;;;;;;;7384767;19;20014;-77
2023/10/30 12:09:43;;;;;;;3.60;1.20;;;;;;;;;;7360651;19;20032;-78
2023/10/30 12:12:08;;;;;;;3.90;1.20;;;;;;;;;;7366727;19;20247;-77
2023/10/30 12:14:33;;;;;;;4.80;1.10;;;;;;;;;;7360998;19;20467;-78
2023/10/30 12:16:59;;;;;;;2.70;1.10;;;;;;;;;;7365882;19;20323;-78
2023/10/30 12:19:24;;;;;;;4.00;1.10;;;;;;;;;;7364731;19;20244;-80
2023/10/30 12:21:50;;;;;;;2.63;1.00;;;;;;;;;;7366544;19;20002;-78
2023/10/30 12:24:16;;;;;;;3.63;1.10;;;;;;;;;;7357565;19;20055;-77
2023/10/30 12:26:41;;;;;;;6.13;1.30;;;;;;;;;;7369507;19;20062;-76
2023/10/30 12:29:06;;;;;;;2.75;1.10;;;;;;;;;;7366690;19;20019;-78
2023/10/30 12:31:31;;;;;;;4.83;1.27;;;;;;;;;;7369968;19;20067;-76
2023/10/30 12:34:10;;;;;;;4.40;1.10;;;;;;;;;;7358698;19;20248;-78
2023/10/30 12:36:35;;;;;;;3.65;1.25;;;;;;;;;;7351707;19;19999;-79
2023/10/30 12:39:16;;;;;;;2.85;1.20;;;;;;;;;;7365041;19;20070;-79
2023/10/30 12:41:42;;;;;;;3.63;1.30;;;;;;;;;;7368797;19;20022;-79
2023/10/30 12:44:07;;;;;;;2.45;0.90;;;;;;;;;;7366007;19;20424;-79
2023/10/30 12:46:32;;;;;;;2.50;1.00;;;;;;;;;;7368653;19;20083;-78
2023/10/30 12:48:57;;;;;;;3.45;1.15;;;;;;;;;;7366252;19;20267;-78
2023/10/30 12:51:23;;;;;;;3.60;0.90;;;;;;;;;;7370048;19;20266;-78
2023/10/30 12:53:48;;;;;;;2.72;1.13;;;;;;;;;;7362952;19;20248;-78
2023/10/30 12:56:13;;;;;;;2.63;1.00;;;;;;;;;;7355444;19;19998;-77
2023/10/30 12:58:38;;;;;;;3.83;1.60;;;;;;;;;;7365966;19;20243;-78
2023/10/30 13:01:04;;;;;;;4.20;1.13;;;;;;;;;;7361962;19;19995;-78
2023/10/30 13:03:29;;;;;;;2.03;0.90;;;;;;;;;;7368591;19;20447;-81
2023/10/30 13:05:54;;;;;;;3.05;1.05;;;;;;;;;;7372427;19;20029;-78
2023/10/30 13:08:20;;;;;;;2.72;1.02;;;;;;;;;;7369679;19;20034;-78
2023/10/30 13:10:46;;;;;;;3.53;0.98;;;;;;;;;;7372273;19;20511;-78
2023/10/30 13:13:16;;;;;;;3.00;0.90;;;;;;;;;;7377328;19;20099;-79
2023/10/30 13:15:41;;;;;;;5.05;1.10;;;;;;;;;;7373853;19;20001;-78
2023/10/30 13:18:06;;;;;;;6.10;1.20;;;;;;;;;;7372473;19;20263;-79
2023/10/30 13:20:31;;;;;;;2.70;1.00;;;;;;;;;;7374901;19;19998;-79
2023/10/30 13:22:57;;;;;;;2.60;0.98;;;;;;;;;;7377286;19;20007;-78
2023/10/30 13:25:23;;;;;;;5.05;1.13;;;;;;;;;;7368211;19;20462;-78
2023/10/30 13:27:48;;;;;;;5.95;1.58;;;;;;;;;;7373089;19;20114;-79
2023/10/30 13:30:13;;;;;;;3.63;1.20;;;;;;;;;;7374493;19;20136;-78
2023/10/30 13:32:38;;;;;;;3.25;1.00;;;;;;;;;;7373227;19;20013;-79
2023/10/30 13:35:04;;;;;;;4.40;1.40;;;;;;;;;;7366690;19;20003;-77
2023/10/30 13:37:29;;;;;;;5.75;1.67;;;;;;;;;;7377956;19;20022;-79
2023/10/30 13:39:54;;;;;;;4.82;1.60;;;;;;;;;;7364984;19;19995;-78
2023/10/30 13:42:19;;;;;;;5.63;1.38;;;;;;;;;;7376425;19;20454;-78
2023/10/30 13:44:44;;;;;;;4.33;2.03;;;;;;;;;;7370699;19;20070;-78
2023/10/30 13:47:09;;;;;;;6.18;2.40;;;;;;;;;;7373430;19;20267;-78
2023/10/30 13:49:35;;;;;;;5.93;2.13;;;;;;;;;;7372187;19;20002;-77
2023/10/30 13:52:00;;;;;;;4.72;1.85;;;;;;;;;;7373754;19;20284;-79
2023/10/30 13:54:25;;;;;;;5.93;2.28;;;;;;;;;;7372795;19;19991;-78
2023/10/30 13:56:51;;;;;;;5.68;1.48;;;;;;;;;;7374565;19;20462;-78
2023/10/30 13:59:16;;;;;;;5.65;1.45;;;;;;;;;;7370625;19;20134;-78
2023/10/30 14:01:41;;;;;;;4.05;1.38;;;;;;;;;;7366239;19;19997;-80
2023/10/30 14:04:06;;;;;;;3.20;1.33;;;;;;;;;;7362829;19;20447;-78
2023/10/30 14:06:32;;;;;;;5.00;1.45;;;;;;;;;;7369777;19;20007;-78
2023/10/30 14:08:57;;;;;;;5.30;1.27;;;;;;;;;;7365093;19;20013;-81
2023/10/30 14:11:23;;;;;;;3.33;1.23;;;;;;;;;;7374020;19;20071;-86
2023/10/30 14:13:49;;;;;;;3.70;1.10;;;;;;;;;;7373286;19;19999;-80
2023/10/30 14:16:15;;;;;;;6.47;1.38;;;;;;;;;;7369315;19;20078;-80
2023/10/30 14:18:40;;;;;;;3.85;1.20;;;;;;;;;;7368152;19;20128;-79
2023/10/30 14:21:05;;;;;;;5.27;1.63;;;;;;;;;;7372138;19;20012;-80
2023/10/30 14:23:30;;;;;;;6.78;2.08;;;;;;;;;;7371861;19;19998;-79
2023/10/30 14:25:56;;;;;;;5.85;2.25;;;;;;;;;;7366891;19;20101;-81
2023/10/30 14:28:21;;;;;;;5.18;2.50;;;;;;;;;;7374871;19;20095;-80
2023/10/30 14:30:46;;;;;;;5.05;2.00;;;;;;;;;;7373083;19;20117;-81